createdAt,value
2022-10-12T00:01:13.488Z,94874.00
2022-10-12T00:05:17.974Z,94878.00
2022-10-12T00:09:20.497Z,94874.00
2022-10-12T00:13:23.986Z,94876.00
2022-10-12T00:17:27.551Z,94877.00
2022-10-12T00:21:32.353Z,94903.00
2022-10-12T00:25:39.869Z,94877.00
2022-10-12T00:29:42.002Z,94883.00
2022-10-12T00:33:47.626Z,94889.00
2022-10-12T00:37:54.512Z,94888.00
2022-10-12T00:41:59.074Z,94885.00
2022-10-12T00:46:07.506Z,94885.00
2022-10-12T00:50:29.887Z,94876.00
2022-10-12T00:54:50.418Z,94876.00
2022-10-12T00:58:55.524Z,94869.00
2022-10-12T01:03:00.629Z,94869.00
2022-10-12T01:07:02.756Z,94871.00
2022-10-12T01:11:05.851Z,94857.00
2022-10-12T01:15:11.334Z,94882.00
2022-10-12T01:19:26.372Z,94866.00
2022-10-12T01:28:57.958Z,94869.00
2022-10-12T01:33:08.821Z,94865.00
2022-10-12T01:37:59.113Z,94841.00
2022-10-12T01:42:17.165Z,94837.00
2022-10-12T01:46:19.920Z,94857.00
2022-10-12T01:50:28.500Z,94830.00
2022-10-12T01:54:43.794Z,94856.00
2022-10-12T01:59:11.825Z,94840.00
2022-10-12T02:03:26.189Z,94856.00
2022-10-12T02:07:44.183Z,94856.00
2022-10-12T02:11:53.341Z,94856.00
2022-10-12T02:15:59.447Z,94863.00
2022-10-12T02:20:04.560Z,94863.00
2022-10-12T02:24:11.272Z,94836.00
2022-10-12T02:28:20.268Z,94834.00
2022-10-12T02:33:07.539Z,94844.00
2022-10-12T02:37:45.418Z,94839.00
2022-10-12T02:41:56.295Z,94824.00
2022-10-12T02:46:21.071Z,94826.00
2022-10-12T02:50:25.925Z,94820.00
2022-10-12T02:54:31.223Z,94828.00
2022-10-12T03:03:16.876Z,94820.00
2022-10-12T03:07:20.513Z,94822.00
2022-10-12T03:11:45.228Z,94813.00
2022-10-12T03:16:09.502Z,94811.00
2022-10-12T03:20:15.771Z,94826.00
2022-10-12T03:24:40.178Z,94814.00
2022-10-12T03:28:42.482Z,94822.00
2022-10-12T03:32:45.909Z,94833.00
2022-10-12T03:36:48.840Z,94826.00
2022-10-12T03:40:51.184Z,94822.00
2022-10-12T03:44:56.269Z,94819.00
2022-10-12T03:49:02.459Z,94830.00
2022-10-12T03:53:10.839Z,94808.00
2022-10-12T03:57:14.098Z,94824.00
2022-10-12T04:01:17.037Z,94810.00
2022-10-12T04:05:20.581Z,94811.00
2022-10-12T04:09:28.618Z,94800.00
2022-10-12T04:13:55.685Z,94800.00
2022-10-12T04:18:14.312Z,94805.00
2022-10-12T04:26:45.422Z,94815.00
2022-10-12T04:30:48.392Z,94814.00
2022-10-12T04:34:58.744Z,94819.00
2022-10-12T04:39:02.953Z,94829.00
2022-10-12T04:43:10.944Z,94819.00
2022-10-12T04:47:18.000Z,94852.00
2022-10-12T04:51:22.281Z,94842.00
2022-10-12T04:55:26.153Z,94835.00
2022-10-12T04:59:31.896Z,94850.00
2022-10-12T05:03:41.991Z,94823.00
2022-10-12T05:07:47.317Z,94835.00
2022-10-12T05:11:54.475Z,94847.00
2022-10-12T05:16:04.549Z,94843.00
2022-10-12T05:20:15.520Z,94856.00
2022-10-12T05:24:21.224Z,94844.00
2022-10-12T05:28:40.872Z,94847.00
2022-10-12T05:32:45.297Z,94844.00
2022-10-12T05:36:50.943Z,94859.00
2022-10-12T05:41:00.174Z,94855.00
2022-10-12T05:45:08.044Z,94843.00
2022-10-12T05:49:15.392Z,94845.00
2022-10-12T05:53:19.436Z,94846.00
2022-10-12T05:57:24.929Z,94857.00
2022-10-12T06:01:27.291Z,94865.00
2022-10-12T06:05:35.308Z,94869.00
2022-10-12T06:09:39.372Z,94860.00
2022-10-12T06:13:45.490Z,94862.00
2022-10-12T06:17:50.606Z,94865.00
2022-10-12T06:22:06.440Z,94873.00
2022-10-12T06:30:31.097Z,94859.00
2022-10-12T06:34:46.850Z,94848.00
2022-10-12T06:38:54.178Z,94858.00
2022-10-12T06:47:19.925Z,94875.00
2022-10-12T06:55:42.711Z,94864.00
2022-10-12T06:59:47.554Z,94886.00
2022-10-12T07:03:53.525Z,94873.00
2022-10-12T07:08:13.117Z,94877.00
2022-10-12T07:12:21.447Z,94891.00
2022-10-12T07:16:24.215Z,94887.00
2022-10-12T07:20:26.394Z,94886.00
2022-10-12T07:24:49.152Z,94889.00
2022-10-12T07:33:10.823Z,94873.00
2022-10-12T07:37:16.165Z,94893.00
2022-10-12T07:41:19.680Z,94871.00
2022-10-12T07:45:23.770Z,94897.00
2022-10-12T07:49:29.211Z,94878.00
2022-10-12T07:53:33.743Z,94883.00
2022-10-12T07:57:38.292Z,94878.00
2022-10-12T08:01:41.745Z,94874.00
2022-10-12T08:05:45.652Z,94885.00
2022-10-12T08:09:52.489Z,94889.00
2022-10-12T08:14:00.578Z,94894.00
2022-10-12T08:18:04.521Z,94877.00
2022-10-12T08:22:07.778Z,94890.00
2022-10-12T08:26:36.499Z,94899.00
2022-10-12T08:30:39.734Z,94898.00
2022-10-12T08:34:50.618Z,94895.00
2022-10-12T08:38:55.988Z,94890.00
2022-10-12T08:43:25.136Z,94902.00
2022-10-12T08:47:46.876Z,94905.00
2022-10-12T08:51:54.794Z,94888.00
2022-10-12T08:56:01.696Z,94911.00
2022-10-12T09:00:05.955Z,94887.00
2022-10-12T09:04:58.456Z,94892.00
2022-10-12T09:09:15.724Z,94890.00
2022-10-12T09:13:38.977Z,94903.00
2022-10-12T09:17:56.763Z,94906.00
2022-10-12T09:22:09.240Z,94906.00
2022-10-12T09:26:20.513Z,94909.00
2022-10-12T09:30:22.829Z,94907.00
2022-10-12T09:34:25.491Z,94920.00
2022-10-12T09:38:27.835Z,94910.00
2022-10-12T09:42:35.286Z,94900.00
2022-10-12T09:46:42.663Z,94903.00
2022-10-12T09:50:52.511Z,94909.00
2022-10-12T09:55:05.101Z,94918.00
2022-10-12T09:59:36.467Z,94909.00
2022-10-12T10:03:39.612Z,94918.00
2022-10-12T10:07:41.665Z,94905.00
2022-10-12T10:11:48.046Z,94915.00
2022-10-12T10:16:04.726Z,94906.00
2022-10-12T10:20:44.628Z,94902.00
2022-10-12T10:25:00.394Z,94904.00
2022-10-12T10:29:25.512Z,94909.00
2022-10-12T10:33:28.194Z,94899.00
2022-10-12T10:37:31.274Z,94911.00
2022-10-12T10:41:39.580Z,94900.00
2022-10-12T10:45:54.559Z,94900.00
2022-10-12T10:50:03.458Z,94891.00
2022-10-12T10:54:24.816Z,94895.00
2022-10-12T10:58:49.678Z,94890.00
2022-10-12T11:02:56.787Z,94892.00
2022-10-12T11:07:06.772Z,94891.00
2022-10-12T11:11:17.630Z,94884.00
2022-10-12T11:15:28.767Z,94881.00
2022-10-12T11:19:39.021Z,94882.00
2022-10-12T11:23:51.593Z,94878.00
2022-10-12T11:27:54.751Z,94878.00
2022-10-12T11:32:03.766Z,94886.00
2022-10-12T11:36:34.429Z,94885.00
2022-10-12T11:41:13.755Z,94884.00
2022-10-12T11:45:33.759Z,94871.00
2022-10-12T11:49:59.572Z,94867.00
2022-10-12T11:54:08.732Z,94860.00
2022-10-12T11:58:56.010Z,94848.00
2022-10-12T12:03:04.139Z,94853.00
2022-10-12T12:07:43.690Z,94832.00
2022-10-12T12:11:45.704Z,94823.00
2022-10-12T12:15:47.879Z,94838.00
2022-10-12T12:19:59.590Z,94839.00
2022-10-12T12:24:16.316Z,94834.00
2022-10-12T12:28:25.444Z,94831.00
2022-10-12T12:32:45.458Z,94822.00
2022-10-12T12:36:51.139Z,94840.00
2022-10-12T12:41:15.224Z,94840.00
2022-10-12T12:45:32.855Z,94848.00
2022-10-12T12:49:37.905Z,94829.00
2022-10-12T12:53:46.693Z,94834.00
2022-10-12T12:58:17.400Z,94828.00
2022-10-12T13:02:38.783Z,94835.00
2022-10-12T13:07:01.902Z,94836.00
2022-10-12T13:11:32.456Z,94840.00
2022-10-12T13:15:59.451Z,94839.00
2022-10-12T13:20:32.373Z,94839.00
2022-10-12T13:24:53.982Z,94832.00
2022-10-12T13:28:57.831Z,94847.00
2022-10-12T13:33:32.336Z,94836.00
2022-10-12T13:37:35.297Z,94853.00
2022-10-12T13:41:40.363Z,94842.00
2022-10-12T13:45:49.331Z,94837.00
2022-10-12T13:49:52.334Z,94834.00
2022-10-12T13:53:55.391Z,94838.00
2022-10-12T13:57:58.253Z,94830.00
2022-10-12T14:02:03.690Z,94835.00
2022-10-12T14:06:23.390Z,94823.00
2022-10-12T14:10:35.748Z,94827.00
2022-10-12T14:14:43.838Z,94827.00
2022-10-12T14:18:49.440Z,94834.00
2022-10-12T14:22:52.493Z,94821.00
2022-10-12T14:27:03.431Z,94820.00
2022-10-12T14:31:06.653Z,94822.00
2022-10-12T14:35:25.413Z,94816.00
2022-10-12T14:39:27.831Z,94827.00
2022-10-12T14:43:30.679Z,94813.00
2022-10-12T14:47:38.587Z,94810.00
2022-10-12T14:51:43.362Z,94824.00
2022-10-12T14:55:45.381Z,94822.00
2022-10-12T14:59:48.350Z,94817.00
2022-10-12T15:03:53.254Z,94816.00
2022-10-12T15:07:57.936Z,94802.00
2022-10-12T15:12:01.258Z,94819.00
2022-10-12T15:16:04.220Z,94806.00
2022-10-12T15:20:08.457Z,94804.00
2022-10-12T15:24:18.045Z,94810.00
2022-10-12T15:28:26.711Z,94794.00
2022-10-12T15:32:29.191Z,94805.00
2022-10-12T15:36:32.995Z,94814.00
2022-10-12T15:40:35.151Z,94822.00
2022-10-12T15:44:41.456Z,94826.00
2022-10-12T15:48:44.258Z,94822.00
2022-10-12T15:52:47.515Z,94819.00
2022-10-12T15:56:49.737Z,94821.00
2022-10-12T16:00:52.220Z,94816.00
2022-10-12T16:04:54.169Z,94825.00
2022-10-12T16:08:56.310Z,94813.00
2022-10-12T16:13:00.471Z,94816.00
2022-10-12T16:17:06.935Z,94809.00
2022-10-12T16:21:10.172Z,94822.00
2022-10-12T16:25:14.457Z,94816.00
2022-10-12T16:29:16.788Z,94812.00
2022-10-12T16:33:19.616Z,94812.00
2022-10-12T16:37:22.451Z,94806.00
2022-10-12T16:41:29.176Z,94815.00
2022-10-12T16:45:35.375Z,94810.00
2022-10-12T16:49:38.961Z,94814.00
2022-10-12T16:53:43.273Z,94821.00
2022-10-12T16:57:45.829Z,94817.00
2022-10-12T17:01:48.198Z,94795.00
2022-10-12T17:06:01.104Z,94815.00
2022-10-12T17:10:08.860Z,94805.00
2022-10-12T17:14:17.906Z,94814.00
2022-10-12T17:18:20.633Z,94802.00
2022-10-12T17:22:24.337Z,94816.00
2022-10-12T17:26:29.806Z,94818.00
2022-10-12T17:30:32.986Z,94801.00
2022-10-12T17:34:40.820Z,94823.00
2022-10-12T17:38:44.833Z,94819.00
2022-10-12T17:42:48.201Z,94810.00
2022-10-12T17:46:53.873Z,94820.00
2022-10-12T17:51:10.482Z,94821.00
2022-10-12T17:55:29.900Z,94815.00
2022-10-12T17:59:38.869Z,94810.00
2022-10-12T18:03:44.393Z,94791.00
2022-10-12T18:07:46.773Z,94828.00
2022-10-12T18:11:52.766Z,94798.00
2022-10-12T18:15:56.580Z,94803.00
2022-10-12T18:20:00.493Z,94820.00
2022-10-12T18:24:14.919Z,94812.00
2022-10-12T18:28:23.588Z,94804.00
2022-10-12T18:32:30.376Z,94801.00
2022-10-12T18:36:33.226Z,94805.00
2022-10-12T18:40:41.865Z,94806.00
2022-10-12T18:44:45.958Z,94805.00
2022-10-12T18:48:48.696Z,94812.00
2022-10-12T18:52:53.451Z,94801.00
2022-10-12T18:56:56.652Z,94808.00
2022-10-12T19:01:00.170Z,94811.00
2022-10-12T19:05:06.011Z,94810.00
2022-10-12T19:09:14.000Z,94807.00
2022-10-12T19:13:18.746Z,94790.00
2022-10-12T19:17:22.361Z,94803.00
2022-10-12T19:21:25.965Z,94794.00
2022-10-12T19:25:31.304Z,94807.00
2022-10-12T19:29:38.724Z,94810.00
2022-10-12T19:33:44.588Z,94788.00
2022-10-12T19:37:48.742Z,94790.00
2022-10-12T19:41:55.558Z,94808.00
2022-10-12T19:46:04.378Z,94805.00
2022-10-12T19:50:10.191Z,94806.00
2022-10-12T19:54:20.879Z,94803.00
2022-10-12T19:58:27.349Z,94802.00
2022-10-12T20:02:33.230Z,94796.00
2022-10-12T20:06:42.120Z,94805.00
2022-10-12T20:10:48.626Z,94791.00
2022-10-12T20:15:02.151Z,94779.00
2022-10-12T20:19:07.313Z,94788.00
2022-10-12T20:23:36.824Z,94802.00
2022-10-12T20:27:41.675Z,94792.00
2022-10-12T20:31:45.414Z,94786.00
2022-10-12T20:35:50.152Z,94779.00
2022-10-12T20:39:54.707Z,94784.00
2022-10-12T20:44:01.719Z,94792.00
2022-10-12T20:48:05.518Z,94790.00
2022-10-12T20:52:10.903Z,94781.00
2022-10-12T20:56:15.412Z,94790.00
2022-10-12T21:00:18.767Z,94781.00
2022-10-12T21:04:22.834Z,94787.00
2022-10-12T21:08:26.730Z,94775.00
2022-10-12T21:12:29.146Z,94780.00
2022-10-12T21:16:32.573Z,94778.00
2022-10-12T21:20:35.020Z,94774.00
2022-10-12T21:24:37.678Z,94771.00
2022-10-12T21:28:40.170Z,94788.00
2022-10-12T21:32:44.820Z,94780.00
2022-10-12T21:36:50.289Z,94770.00
2022-10-12T21:40:55.557Z,94780.00
2022-10-12T21:44:58.841Z,94777.00
2022-10-12T21:49:07.076Z,94787.00
2022-10-12T21:53:13.998Z,94774.00
2022-10-12T21:57:16.957Z,94778.00
2022-10-12T22:01:24.533Z,94769.00
2022-10-12T22:05:28.775Z,94748.00
2022-10-12T22:09:31.403Z,94783.00
2022-10-12T22:13:40.241Z,94788.00
2022-10-12T22:17:45.430Z,94772.00
2022-10-12T22:21:53.009Z,94761.00
2022-10-12T22:26:05.608Z,94759.00
2022-10-12T22:30:10.375Z,94755.00
2022-10-12T22:34:13.649Z,94766.00
2022-10-12T22:38:17.115Z,94771.00
2022-10-12T22:42:26.035Z,94752.00
2022-10-12T22:46:28.552Z,94760.00
2022-10-12T22:50:33.412Z,94761.00
2022-10-12T22:54:38.748Z,94758.00
2022-10-12T22:58:41.171Z,94752.00
2022-10-12T23:02:45.601Z,94748.00
2022-10-12T23:06:49.133Z,94756.00
2022-10-12T23:10:52.204Z,94757.00
2022-10-12T23:14:54.922Z,94749.00
2022-10-12T23:19:04.630Z,94762.00
2022-10-12T23:23:07.157Z,94753.00
2022-10-12T23:27:14.067Z,94755.00
2022-10-12T23:31:24.327Z,94750.00
2022-10-12T23:35:30.415Z,94749.00
2022-10-12T23:39:38.710Z,94752.00
2022-10-12T23:43:45.129Z,94740.00
2022-10-12T23:47:50.346Z,94731.00
2022-10-12T23:51:53.941Z,94745.00
2022-10-12T23:56:00.782Z,94741.00
